createdAt,value
2023-03-12T00:00:52.232Z,3.40
2023-03-12T00:03:18.680Z,3.03
2023-03-12T00:05:45.310Z,3.55
2023-03-12T00:08:12.903Z,4.05
2023-03-12T00:10:40.571Z,4.47
2023-03-12T00:13:08.016Z,5.60
2023-03-12T00:15:38.680Z,5.20
2023-03-12T00:18:05.665Z,4.47
2023-03-12T00:20:32.792Z,4.68
2023-03-12T00:22:59.394Z,5.00
2023-03-12T00:25:25.810Z,4.53
2023-03-12T00:27:52.193Z,4.72
2023-03-12T00:30:18.810Z,4.70
2023-03-12T00:32:45.317Z,5.38
2023-03-12T00:35:12.017Z,6.22
2023-03-12T00:37:38.549Z,6.75
2023-03-12T00:40:08.372Z,6.30
2023-03-12T00:42:34.814Z,6.15
2023-03-12T00:45:01.234Z,6.40
2023-03-12T00:47:27.665Z,6.45
2023-03-12T00:49:54.091Z,6.25
2023-03-12T00:52:20.551Z,6.45
2023-03-12T00:54:46.939Z,5.70
2023-03-12T00:57:13.344Z,5.53
2023-03-12T00:59:40.476Z,5.07
2023-03-12T01:02:08.580Z,4.85
2023-03-12T01:04:35.170Z,5.65
2023-03-12T01:07:01.605Z,4.55
2023-03-12T01:09:28.197Z,4.90
2023-03-12T01:11:54.700Z,5.13
2023-03-12T01:14:21.116Z,4.85
2023-03-12T01:16:47.674Z,6.63
2023-03-12T01:19:14.129Z,3.85
2023-03-12T01:21:40.681Z,4.95
2023-03-12T01:24:07.670Z,4.43
2023-03-12T01:26:34.105Z,4.45
2023-03-12T01:29:00.534Z,4.03
2023-03-12T01:31:27.126Z,4.15
2023-03-12T01:33:54.095Z,4.30
2023-03-12T01:36:24.082Z,4.60
2023-03-12T01:38:52.231Z,4.47
2023-03-12T01:41:19.390Z,4.10
2023-03-12T01:43:46.229Z,3.55
2023-03-12T01:46:16.234Z,3.70
2023-03-12T01:48:45.689Z,3.65
2023-03-12T01:51:15.866Z,4.00
2023-03-12T01:53:47.098Z,4.13
2023-03-12T01:56:17.193Z,3.90
2023-03-12T01:58:50.429Z,4.03
2023-03-12T02:01:19.539Z,3.95
2023-03-12T02:03:50.544Z,3.30
2023-03-12T02:06:20.802Z,3.50
2023-03-12T02:08:48.224Z,3.20
2023-03-12T02:11:14.836Z,4.45
2023-03-12T02:13:41.558Z,3.50
2023-03-12T02:16:09.276Z,3.75
2023-03-12T02:18:36.070Z,4.18
2023-03-12T02:21:13.899Z,3.75
2023-03-12T02:23:57.143Z,3.38
2023-03-12T02:26:27.365Z,3.63
2023-03-12T02:28:54.627Z,3.83
2023-03-12T02:31:25.743Z,3.47
2023-03-12T02:33:55.983Z,3.83
2023-03-12T02:36:22.653Z,3.88
2023-03-12T02:38:51.001Z,3.83
2023-03-12T02:41:19.969Z,3.83
2023-03-12T02:43:51.901Z,3.90
2023-03-12T02:46:18.819Z,3.58
2023-03-12T02:48:45.305Z,4.03
2023-03-12T02:51:11.949Z,4.05
2023-03-12T02:53:38.826Z,3.80
2023-03-12T02:56:06.405Z,3.60
2023-03-12T02:58:33.800Z,3.70
2023-03-12T03:01:01.499Z,3.60
2023-03-12T03:03:27.955Z,3.42
2023-03-12T03:05:54.457Z,4.45
2023-03-12T03:08:20.947Z,4.00
2023-03-12T03:10:50.834Z,4.20
2023-03-12T03:13:17.256Z,3.72
2023-03-12T03:15:43.857Z,3.13
2023-03-12T03:18:10.345Z,3.70
2023-03-12T03:20:36.807Z,3.40
2023-03-12T03:23:03.351Z,3.38
2023-03-12T03:25:29.921Z,3.00
2023-03-12T03:27:56.436Z,3.17
2023-03-12T03:30:22.882Z,2.90
2023-03-12T03:32:51.256Z,3.00
2023-03-12T03:35:18.518Z,3.15
2023-03-12T03:37:45.135Z,2.90
2023-03-12T03:40:12.380Z,2.55
2023-03-12T03:42:39.990Z,2.95
2023-03-12T03:45:08.718Z,2.53
2023-03-12T03:47:36.138Z,3.15
2023-03-12T03:50:04.305Z,2.90
2023-03-12T03:52:31.761Z,3.15
2023-03-12T03:54:59.417Z,2.70
2023-03-12T03:57:27.028Z,2.95
2023-03-12T03:59:53.579Z,3.08
2023-03-12T04:02:20.471Z,2.90
2023-03-12T04:04:49.705Z,3.17
2023-03-12T04:07:16.470Z,3.65
2023-03-12T04:09:43.304Z,3.00
2023-03-12T04:12:10.300Z,3.70
2023-03-12T04:14:40.901Z,3.45
2023-03-12T04:17:08.737Z,3.38
2023-03-12T04:19:35.882Z,3.65
2023-03-12T04:22:04.788Z,3.03
2023-03-12T04:24:31.333Z,3.20
2023-03-12T04:26:58.892Z,3.53
2023-03-12T04:29:25.850Z,3.65
2023-03-12T04:31:52.532Z,4.78
2023-03-12T04:34:18.992Z,3.92
2023-03-12T04:36:48.344Z,4.22
2023-03-12T04:39:20.951Z,3.63
2023-03-12T04:41:49.911Z,5.20
2023-03-12T04:44:16.719Z,5.82
2023-03-12T04:46:44.367Z,3.35
2023-03-12T04:49:14.017Z,4.25
2023-03-12T04:51:42.019Z,3.13
2023-03-12T04:54:08.793Z,3.30
2023-03-12T04:56:36.612Z,3.47
2023-03-12T04:59:03.265Z,3.50
2023-03-12T05:01:32.685Z,3.33
2023-03-12T05:04:02.828Z,3.40
2023-03-12T05:06:30.615Z,3.20
2023-03-12T05:08:57.270Z,3.42
2023-03-12T05:11:23.845Z,3.25
2023-03-12T05:13:50.391Z,3.22
2023-03-12T05:16:17.828Z,3.92
2023-03-12T05:18:45.618Z,3.50
2023-03-12T05:21:15.023Z,3.63
2023-03-12T05:23:43.043Z,3.10
2023-03-12T05:26:18.432Z,3.05
2023-03-12T05:28:44.962Z,3.40
2023-03-12T05:31:12.844Z,3.85
2023-03-12T05:33:40.035Z,3.17
2023-03-12T05:36:08.999Z,3.45
2023-03-12T05:38:35.637Z,3.45
2023-03-12T05:41:02.573Z,3.33
2023-03-12T05:43:32.727Z,3.78
2023-03-12T05:46:01.121Z,3.90
2023-03-12T05:48:28.350Z,4.70
2023-03-12T05:50:56.154Z,3.83
2023-03-12T05:53:23.101Z,4.13
2023-03-12T05:55:50.005Z,3.65
2023-03-12T05:58:16.541Z,4.65
2023-03-12T06:00:44.488Z,3.97
2023-03-12T06:03:13.319Z,4.28
2023-03-12T06:05:41.066Z,3.92
2023-03-12T06:08:07.666Z,4.55
2023-03-12T06:10:34.344Z,4.93
2023-03-12T06:13:00.926Z,4.57
2023-03-12T06:15:27.471Z,4.93
2023-03-12T06:17:53.962Z,5.50
2023-03-12T06:20:20.552Z,5.03
2023-03-12T06:22:47.156Z,5.13
2023-03-12T06:25:14.688Z,5.28
2023-03-12T06:27:41.485Z,4.70
2023-03-12T06:30:09.272Z,5.70
2023-03-12T06:32:35.753Z,5.80
2023-03-12T06:35:04.317Z,5.80
2023-03-12T06:37:30.745Z,7.03
2023-03-12T06:39:57.282Z,6.68
2023-03-12T06:42:23.752Z,6.53
2023-03-12T06:44:50.334Z,7.18
2023-03-12T06:47:17.786Z,7.57
2023-03-12T06:49:44.587Z,7.45
2023-03-12T06:52:11.335Z,7.55
2023-03-12T06:54:38.059Z,8.38
2023-03-12T06:57:04.473Z,8.43
2023-03-12T06:59:30.997Z,7.93
2023-03-12T07:01:57.460Z,8.70
2023-03-12T07:04:23.891Z,7.38
2023-03-12T07:06:51.281Z,7.45
2023-03-12T07:09:18.707Z,8.65
2023-03-12T07:11:45.327Z,9.20
2023-03-12T07:14:12.099Z,8.70
2023-03-12T07:16:38.629Z,9.15
2023-03-12T07:19:05.057Z,9.40
2023-03-12T07:21:31.675Z,11.10
2023-03-12T07:23:58.309Z,10.48
2023-03-12T07:26:24.738Z,10.35
2023-03-12T07:28:51.808Z,11.20
2023-03-12T07:31:18.251Z,13.05
2023-03-12T07:33:44.795Z,11.85
2023-03-12T07:36:11.438Z,11.02
2023-03-12T07:38:37.953Z,12.40
2023-03-12T07:41:04.558Z,11.43
2023-03-12T07:43:31.005Z,11.68
2023-03-12T07:45:58.598Z,11.18
2023-03-12T07:48:25.130Z,11.70
2023-03-12T07:50:52.161Z,12.73
2023-03-12T07:53:19.146Z,10.45
2023-03-12T07:55:46.931Z,11.27
2023-03-12T07:58:15.500Z,10.68
2023-03-12T08:00:42.048Z,12.65
2023-03-12T08:03:08.819Z,11.27
2023-03-12T08:05:35.439Z,12.75
2023-03-12T08:08:01.903Z,11.23
2023-03-12T08:10:28.456Z,11.60
2023-03-12T08:12:54.973Z,12.65
2023-03-12T08:15:21.400Z,13.23
2023-03-12T08:17:48.077Z,12.02
2023-03-12T08:20:14.783Z,11.73
2023-03-12T08:22:41.218Z,11.77
2023-03-12T08:25:08.700Z,16.30
2023-03-12T08:27:35.325Z,16.42
2023-03-12T08:30:01.810Z,15.63
2023-03-12T08:32:28.319Z,14.50
2023-03-12T08:34:54.796Z,14.15
2023-03-12T08:37:21.936Z,14.73
2023-03-12T08:39:48.323Z,16.33
2023-03-12T08:42:14.729Z,15.65
2023-03-12T08:44:41.180Z,15.20
2023-03-12T08:47:07.595Z,16.23
2023-03-12T08:49:34.058Z,14.60
2023-03-12T08:52:00.539Z,15.35
2023-03-12T08:54:26.965Z,15.98
2023-03-12T08:56:53.679Z,15.85
2023-03-12T08:59:22.196Z,18.27
2023-03-12T09:01:49.026Z,16.83
2023-03-12T09:04:16.392Z,15.30
2023-03-12T09:06:43.228Z,15.98
2023-03-12T09:09:09.805Z,17.20
2023-03-12T09:11:39.567Z,16.85
2023-03-12T09:16:52.446Z,16.52
2023-03-12T09:19:19.021Z,16.55
2023-03-12T09:21:45.469Z,17.20
2023-03-12T09:24:12.024Z,16.02
2023-03-12T09:26:38.429Z,15.65
2023-03-12T09:29:04.898Z,16.17
2023-03-12T09:31:31.452Z,15.82
2023-03-12T09:33:57.924Z,14.95
2023-03-12T09:36:24.330Z,14.95
2023-03-12T09:38:50.737Z,13.90
2023-03-12T09:41:23.911Z,12.40
2023-03-12T09:44:02.280Z,14.07
2023-03-12T09:46:40.294Z,14.00
2023-03-12T09:49:16.357Z,12.98
2023-03-12T09:51:47.129Z,14.60
2023-03-12T09:54:24.726Z,14.02
2023-03-12T09:56:54.898Z,11.90
2023-03-12T09:59:22.290Z,14.23
2023-03-12T10:01:58.967Z,13.38
2023-03-12T10:04:59.014Z,14.23
2023-03-12T10:07:34.859Z,16.30
2023-03-12T10:10:32.685Z,15.38
2023-03-12T10:13:47.280Z,16.20
2023-03-12T10:16:28.632Z,13.68
2023-03-12T10:19:07.758Z,12.52
2023-03-12T10:21:44.392Z,13.27
2023-03-12T10:24:25.469Z,12.10
2023-03-12T10:26:56.405Z,11.25
2023-03-12T10:29:27.093Z,11.35
2023-03-12T10:31:53.456Z,10.77
2023-03-12T10:35:14.145Z,10.38
2023-03-12T10:37:49.432Z,11.52
2023-03-12T10:40:19.274Z,9.98
2023-03-12T10:42:46.143Z,10.43
2023-03-12T10:45:28.395Z,10.35
2023-03-12T10:48:24.524Z,10.50
2023-03-12T10:51:12.388Z,9.55
2023-03-12T10:53:47.929Z,9.45
2023-03-12T10:56:20.439Z,9.63
2023-03-12T10:58:53.311Z,8.77
2023-03-12T11:01:25.599Z,9.60
2023-03-12T11:04:07.344Z,9.45
2023-03-12T11:06:33.997Z,8.73
2023-03-12T11:09:16.693Z,9.82
2023-03-12T11:11:47.365Z,10.38
2023-03-12T11:14:20.029Z,9.43
2023-03-12T11:16:46.580Z,10.07
2023-03-12T11:19:25.639Z,8.85
2023-03-12T11:21:57.210Z,9.75
2023-03-12T11:24:23.652Z,10.05
2023-03-12T11:26:59.865Z,9.18
2023-03-12T11:29:33.254Z,9.85
2023-03-12T11:32:05.078Z,8.07
2023-03-12T11:34:37.217Z,8.07
2023-03-12T11:37:12.886Z,8.88
2023-03-12T11:40:09.733Z,7.60
2023-03-12T11:43:10.492Z,7.57
2023-03-12T11:45:42.124Z,6.53
2023-03-12T11:48:15.746Z,4.60
2023-03-12T11:50:45.231Z,4.72
2023-03-12T11:53:30.365Z,3.00
2023-03-12T11:56:02.748Z,2.80
2023-03-12T11:58:49.940Z,2.42
2023-03-12T12:01:24.377Z,2.20
2023-03-12T12:04:20.052Z,2.17
2023-03-12T12:06:55.160Z,2.45
2023-03-12T12:09:32.232Z,2.90
2023-03-12T12:12:22.049Z,2.65
2023-03-12T12:15:06.766Z,2.50
2023-03-12T12:17:59.323Z,2.25
2023-03-12T12:20:40.993Z,2.47
2023-03-12T12:23:16.253Z,2.63
2023-03-12T12:26:13.899Z,2.20
2023-03-12T12:28:54.099Z,2.28
2023-03-12T12:31:40.449Z,2.08
2023-03-12T12:34:38.152Z,2.38
2023-03-12T12:37:31.240Z,2.70
2023-03-12T12:40:20.098Z,2.10
2023-03-12T12:43:00.770Z,3.00
2023-03-12T12:45:30.422Z,3.72
2023-03-12T12:48:07.173Z,3.40
2023-03-12T12:50:38.243Z,3.00
2023-03-12T12:53:21.502Z,2.67
2023-03-12T12:56:01.505Z,2.80
2023-03-12T12:59:03.231Z,2.67
2023-03-12T13:01:32.292Z,2.80
2023-03-12T13:04:24.496Z,2.55
2023-03-12T13:07:20.836Z,2.08
2023-03-12T13:09:52.793Z,2.35
2023-03-12T13:12:35.937Z,2.40
2023-03-12T13:15:28.148Z,3.10
2023-03-12T13:17:54.518Z,2.50
2023-03-12T13:20:24.430Z,3.58
2023-03-12T13:23:24.234Z,2.83
2023-03-12T13:26:18.650Z,3.25
2023-03-12T13:29:02.697Z,3.40
2023-03-12T13:31:37.649Z,2.67
2023-03-12T13:34:19.531Z,2.88
2023-03-12T13:36:50.346Z,2.50
2023-03-12T13:39:16.695Z,2.20
2023-03-12T13:41:49.707Z,2.40
2023-03-12T13:44:39.234Z,2.47
2023-03-12T13:47:11.454Z,2.53
2023-03-12T13:49:44.931Z,2.08
2023-03-12T13:52:20.370Z,1.80
2023-03-12T13:54:57.607Z,2.13
2023-03-12T13:57:39.099Z,1.92
2023-03-12T14:00:15.256Z,2.40
2023-03-12T14:02:49.605Z,2.90
2023-03-12T14:05:18.206Z,3.03
2023-03-12T14:08:11.379Z,2.97
2023-03-12T14:11:05.693Z,3.28
2023-03-12T14:13:58.612Z,2.85
2023-03-12T14:16:39.266Z,2.45
2023-03-12T14:19:06.256Z,2.88
2023-03-12T14:21:39.951Z,4.75
2023-03-12T14:24:07.996Z,3.28
2023-03-12T14:26:36.600Z,3.55
2023-03-12T14:29:25.376Z,3.72
2023-03-12T14:31:56.509Z,2.35
2023-03-12T14:34:27.041Z,2.05
2023-03-12T14:37:16.293Z,2.45
2023-03-12T14:39:59.253Z,2.10
2023-03-12T14:42:32.616Z,1.95
2023-03-12T14:45:05.945Z,2.38
2023-03-12T14:47:47.631Z,2.08
2023-03-12T14:50:18.609Z,2.28
2023-03-12T14:52:45.212Z,2.70
2023-03-12T14:55:18.701Z,2.67
2023-03-12T14:57:45.625Z,2.40
2023-03-12T15:00:27.404Z,2.45
2023-03-12T15:02:58.008Z,2.85
2023-03-12T15:05:25.006Z,2.50
2023-03-12T15:07:57.160Z,2.60
2023-03-12T15:10:27.126Z,2.45
2023-03-12T15:12:56.544Z,2.33
2023-03-12T15:15:44.116Z,2.17
2023-03-12T15:18:18.080Z,2.22
2023-03-12T15:20:46.629Z,2.20
2023-03-12T15:23:15.276Z,2.08
2023-03-12T15:25:42.249Z,2.20
2023-03-12T15:28:11.492Z,2.55
2023-03-12T15:30:39.455Z,2.28
2023-03-12T15:33:14.948Z,2.30
2023-03-12T15:36:02.485Z,2.72
2023-03-12T15:38:32.088Z,2.38
2023-03-12T15:41:06.098Z,2.72
2023-03-12T15:43:33.400Z,2.35
2023-03-12T15:46:03.036Z,2.60
2023-03-12T15:48:40.493Z,2.53
2023-03-12T15:51:16.314Z,2.60
2023-03-12T15:53:42.707Z,1.80
2023-03-12T15:56:09.418Z,1.98
2023-03-12T15:58:38.798Z,2.03
2023-03-12T16:01:12.943Z,1.92
2023-03-12T16:03:40.684Z,2.05
2023-03-12T16:06:16.118Z,1.58
2023-03-12T16:08:52.618Z,1.80
2023-03-12T16:11:25.113Z,1.35
2023-03-12T16:13:58.077Z,1.60
2023-03-12T16:16:24.631Z,1.83
2023-03-12T16:18:51.032Z,2.10
2023-03-12T16:21:17.424Z,2.05
2023-03-12T16:23:43.943Z,1.65
2023-03-12T16:26:13.076Z,1.98
2023-03-12T16:28:39.905Z,1.45
2023-03-12T16:31:14.734Z,1.80
2023-03-12T16:33:43.562Z,1.80
2023-03-12T16:36:15.797Z,1.90
2023-03-12T16:38:43.346Z,1.85
2023-03-12T16:41:13.375Z,2.38
2023-03-12T16:43:41.534Z,2.33
2023-03-12T16:46:09.301Z,2.13
2023-03-12T16:48:36.449Z,1.92
2023-03-12T16:51:03.483Z,1.70
2023-03-12T16:53:30.101Z,1.60
2023-03-12T16:56:01.767Z,1.67
2023-03-12T16:58:29.353Z,2.03
2023-03-12T17:00:56.820Z,1.58
2023-03-12T17:03:33.778Z,1.80
2023-03-12T17:06:01.553Z,1.40
2023-03-12T17:08:27.956Z,1.80
2023-03-12T17:10:56.484Z,1.90
2023-03-12T17:13:28.483Z,2.20
2023-03-12T17:15:56.207Z,2.83
2023-03-12T17:18:22.991Z,2.58
2023-03-12T17:20:51.646Z,2.00
2023-03-12T17:23:18.185Z,2.20
2023-03-12T17:25:45.414Z,2.35
2023-03-12T17:28:13.524Z,1.75
2023-03-12T17:30:39.938Z,2.30
2023-03-12T17:33:10.604Z,2.05
2023-03-12T17:35:37.180Z,2.47
2023-03-12T17:38:04.041Z,2.15
2023-03-12T17:40:30.441Z,1.50
2023-03-12T17:42:56.910Z,2.17
2023-03-12T17:45:23.550Z,1.98
2023-03-12T17:47:50.008Z,1.60
2023-03-12T17:50:17.176Z,1.83
2023-03-12T17:52:43.800Z,1.75
2023-03-12T17:55:11.809Z,2.03
2023-03-12T17:57:38.750Z,2.55
2023-03-12T18:00:14.830Z,2.10
2023-03-12T18:02:41.979Z,1.95
2023-03-12T18:05:10.089Z,1.58
2023-03-12T18:07:36.891Z,2.20
2023-03-12T18:10:05.623Z,1.80
2023-03-12T18:12:32.876Z,2.42
2023-03-12T18:14:59.464Z,2.10
2023-03-12T18:17:25.924Z,2.30
2023-03-12T18:19:52.396Z,2.50
2023-03-12T18:22:19.874Z,2.05
2023-03-12T18:24:46.453Z,2.58
2023-03-12T18:27:12.927Z,7.05
2023-03-12T18:29:41.047Z,2.90
2023-03-12T18:32:08.009Z,2.70
2023-03-12T18:34:34.505Z,2.00
2023-03-12T18:37:00.937Z,2.40
2023-03-12T18:39:27.365Z,2.72
2023-03-12T18:41:56.922Z,3.42
2023-03-12T18:44:24.442Z,3.25
2023-03-12T18:46:51.782Z,2.60
2023-03-12T18:49:18.426Z,2.03
2023-03-12T18:51:45.065Z,3.17
2023-03-12T18:54:12.711Z,2.50
2023-03-12T18:56:40.766Z,3.08
2023-03-12T18:59:09.815Z,2.58
2023-03-12T19:01:36.569Z,2.90
2023-03-12T19:04:03.149Z,2.10
2023-03-12T19:06:35.045Z,2.40
2023-03-12T19:09:09.638Z,2.10
2023-03-12T19:11:36.286Z,2.17
2023-03-12T19:14:03.329Z,2.10
2023-03-12T19:16:30.607Z,2.70
2023-03-12T19:18:57.838Z,2.80
2023-03-12T19:21:24.462Z,1.60
2023-03-12T19:23:52.071Z,2.53
2023-03-12T19:26:18.479Z,2.45
2023-03-12T19:28:44.980Z,3.08
2023-03-12T19:31:14.944Z,2.15
2023-03-12T19:33:42.854Z,2.20
2023-03-12T19:36:09.416Z,1.75
2023-03-12T19:38:36.189Z,2.45
2023-03-12T19:41:02.632Z,2.78
2023-03-12T19:43:29.137Z,2.50
2023-03-12T19:45:55.773Z,2.40
2023-03-12T19:48:22.611Z,2.30
2023-03-12T19:50:49.646Z,2.92
2023-03-12T19:53:17.667Z,2.92
2023-03-12T19:55:46.885Z,2.97
2023-03-12T19:58:13.340Z,2.70
2023-03-12T20:00:41.126Z,2.55
2023-03-12T20:03:08.081Z,3.03
2023-03-12T20:05:34.653Z,3.35
2023-03-12T20:08:01.069Z,3.75
2023-03-12T20:10:29.247Z,2.15
2023-03-12T20:12:55.795Z,2.65
2023-03-12T20:15:22.215Z,3.00
2023-03-12T20:17:48.659Z,1.88
2023-03-12T20:20:16.528Z,1.85
2023-03-12T20:22:43.073Z,2.35
2023-03-12T20:25:10.368Z,2.47
2023-03-12T20:27:38.418Z,3.05
2023-03-12T20:30:05.698Z,3.00
2023-03-12T20:32:32.205Z,2.95
2023-03-12T20:34:58.668Z,4.03
2023-03-12T20:37:25.117Z,2.85
2023-03-12T20:39:51.496Z,2.83
2023-03-12T20:42:17.931Z,3.45
2023-03-12T20:44:44.334Z,2.33
2023-03-12T20:47:10.798Z,2.80
2023-03-12T20:49:37.205Z,3.05
2023-03-12T20:52:03.763Z,3.20
2023-03-12T20:54:30.318Z,4.22
2023-03-12T20:56:56.754Z,3.35
2023-03-12T20:59:23.126Z,3.65
2023-03-12T21:01:49.516Z,3.25
2023-03-12T21:04:15.961Z,1.90
2023-03-12T21:06:42.418Z,1.98
2023-03-12T21:09:08.822Z,2.13
2023-03-12T21:11:35.214Z,2.05
2023-03-12T21:14:01.641Z,2.00
2023-03-12T21:16:28.102Z,1.90
2023-03-12T21:18:56.438Z,2.25
2023-03-12T21:21:23.219Z,2.25
2023-03-12T21:23:49.769Z,1.80
2023-03-12T21:26:18.167Z,2.30
2023-03-12T21:28:45.027Z,2.60
2023-03-12T21:31:14.024Z,2.28
2023-03-12T21:33:40.639Z,2.30
2023-03-12T21:36:09.456Z,2.58
2023-03-12T21:38:37.103Z,2.35
2023-03-12T21:41:08.561Z,2.75
2023-03-12T21:43:35.073Z,4.13
2023-03-12T21:46:10.148Z,6.00
2023-03-12T21:48:37.021Z,2.88
2023-03-12T21:51:08.857Z,2.85
2023-03-12T21:53:36.248Z,2.17
2023-03-12T21:56:04.350Z,2.35
2023-03-12T21:58:31.858Z,2.40
2023-03-12T22:01:07.577Z,2.58
2023-03-12T22:03:34.469Z,2.53
2023-03-12T22:06:01.022Z,2.40
2023-03-12T22:08:27.488Z,2.60
2023-03-12T22:10:53.916Z,2.47
2023-03-12T22:13:20.365Z,6.35
2023-03-12T22:15:52.736Z,3.20
2023-03-12T22:18:19.168Z,3.35
2023-03-12T22:20:53.018Z,3.20
2023-03-12T22:23:20.234Z,2.83
2023-03-12T22:25:46.699Z,2.45
2023-03-12T22:28:13.997Z,2.78
2023-03-12T22:30:40.402Z,2.97
2023-03-12T22:33:06.981Z,2.60
2023-03-12T22:35:33.405Z,2.30
2023-03-12T22:37:59.788Z,2.20
2023-03-12T22:40:26.607Z,2.47
2023-03-12T22:42:53.924Z,2.15
2023-03-12T22:45:20.312Z,2.30
2023-03-12T22:47:46.730Z,2.40
2023-03-12T22:50:13.305Z,2.78
2023-03-12T22:52:40.029Z,2.10
2023-03-12T22:55:06.858Z,2.50
2023-03-12T22:57:34.704Z,2.13
2023-03-12T23:00:01.135Z,2.40
2023-03-12T23:02:27.636Z,2.80
2023-03-12T23:04:54.090Z,2.25
2023-03-12T23:07:20.658Z,2.33
2023-03-12T23:09:47.536Z,2.67
2023-03-12T23:12:13.930Z,1.98
2023-03-12T23:14:40.357Z,2.50
2023-03-12T23:17:06.754Z,2.38
2023-03-12T23:19:33.577Z,2.97
2023-03-12T23:22:00.002Z,2.70
2023-03-12T23:24:26.390Z,2.17
2023-03-12T23:26:54.781Z,2.33
2023-03-12T23:29:21.201Z,2.97
2023-03-12T23:31:47.626Z,3.20
2023-03-12T23:34:14.055Z,2.70
2023-03-12T23:36:40.707Z,2.60
2023-03-12T23:39:07.104Z,2.97
2023-03-12T23:41:33.757Z,2.58
2023-03-12T23:44:00.289Z,2.65
2023-03-12T23:46:27.417Z,3.22
2023-03-12T23:48:54.164Z,2.40
2023-03-12T23:51:32.571Z,2.42
2023-03-12T23:54:01.822Z,2.88
2023-03-12T23:56:33.674Z,2.92
2023-03-12T23:59:00.142Z,3.00
